Time;durP1;ratioP1;P1;durP2;ratioP2;P2;SDS_P1;SDS_P2;PMS_P1;PMS_P2;Temp;Humidity;BMP_temperature;BMP_pressure;BME280_temperature;BME280_humidity;BME280_pressure;Samples;Min_cycle;Max_cycle;Signal;HPM_P1;HPM_P2
2022/08/16 00:01:02;;;;;;;8.27;5.03;;;;;;;;;;5044901;28;20215;-79
2022/08/16 00:03:30;;;;;;;6.80;4.50;;;;;;;;;;5042363;28;20203;-78
2022/08/16 00:05:57;;;;;;;7.30;4.93;;;;;;;;;;5044186;28;20199;-80
2022/08/16 00:08:24;;;;;;;7.00;4.67;;;;;;;;;;5048676;28;20203;-79
2022/08/16 00:10:51;;;;;;;6.63;4.33;;;;;;;;;;5045825;28;20306;-80
2022/08/16 00:13:20;;;;;;;8.20;4.67;;;;;;;;;;5046180;28;20203;-78
2022/08/16 00:15:48;;;;;;;7.73;4.73;;;;;;;;;;5043480;28;20660;-79
2022/08/16 00:18:17;;;;;;;7.73;5.20;;;;;;;;;;5044997;28;20195;-79
2022/08/16 00:20:45;;;;;;;13.73;5.23;;;;;;;;;;5045887;28;20314;-77
2022/08/16 00:23:13;;;;;;;9.60;4.87;;;;;;;;;;5047899;28;20199;-76
2022/08/16 00:25:41;;;;;;;6.77;5.10;;;;;;;;;;5045290;28;20293;-76
2022/08/16 00:28:08;;;;;;;8.23;5.60;;;;;;;;;;5045881;28;20207;-77
2022/08/16 00:30:37;;;;;;;7.60;4.90;;;;;;;;;;5046656;28;20736;-79
2022/08/16 00:33:04;;;;;;;8.43;5.20;;;;;;;;;;5048011;28;20203;-79
2022/08/16 00:35:32;;;;;;;8.03;4.87;;;;;;;;;;5044743;28;20343;-79
2022/08/16 00:38:01;;;;;;;6.40;4.57;;;;;;;;;;5045689;28;20231;-79
2022/08/16 00:40:31;;;;;;;6.03;4.30;;;;;;;;;;5045362;28;20372;-80
2022/08/16 00:42:59;;;;;;;9.33;4.90;;;;;;;;;;5046558;28;20260;-80
2022/08/16 00:45:32;;;;;;;7.70;5.20;;;;;;;;;;5048284;28;20199;-79
2022/08/16 00:48:03;;;;;;;6.23;4.90;;;;;;;;;;5052803;28;20199;-78
2022/08/16 00:50:31;;;;;;;9.90;4.93;;;;;;;;;;5044735;28;20305;-78
2022/08/16 00:52:58;;;;;;;7.13;4.50;;;;;;;;;;5042659;28;20574;-78
2022/08/16 00:55:27;;;;;;;6.67;5.00;;;;;;;;;;5042002;28;20286;-78
2022/08/16 00:57:56;;;;;;;7.63;4.97;;;;;;;;;;5042987;28;20213;-77
2022/08/16 01:00:27;;;;;;;8.93;5.13;;;;;;;;;;5043130;28;20596;-78
2022/08/16 01:02:54;;;;;;;7.47;4.73;;;;;;;;;;5045547;28;20700;-78
2022/08/16 01:05:24;;;;;;;8.93;5.30;;;;;;;;;;5044845;28;20230;-79
2022/08/16 01:07:51;;;;;;;8.27;5.03;;;;;;;;;;5045636;28;20213;-78
2022/08/16 01:10:19;;;;;;;8.27;5.20;;;;;;;;;;5044566;28;20230;-79
2022/08/16 01:12:46;;;;;;;12.67;5.40;;;;;;;;;;5049111;28;20210;-79
2022/08/16 01:15:14;;;;;;;8.03;5.50;;;;;;;;;;5043430;28;20211;-76
2022/08/16 01:17:42;;;;;;;11.23;5.77;;;;;;;;;;5046152;28;20993;-79
2022/08/16 01:20:10;;;;;;;9.00;6.10;;;;;;;;;;5047025;28;20659;-79
2022/08/16 01:22:47;;;;;;;8.57;5.70;;;;;;;;;;5047200;28;20289;-80
2022/08/16 01:25:19;;;;;;;13.13;5.50;;;;;;;;;;5044045;28;20822;-76
2022/08/16 01:27:47;;;;;;;7.83;5.33;;;;;;;;;;5040761;28;20757;-78
2022/08/16 01:30:16;;;;;;;7.67;5.00;;;;;;;;;;5045382;28;20305;-79
2022/08/16 01:32:43;;;;;;;7.43;5.33;;;;;;;;;;5044866;28;20206;-76
2022/08/16 01:35:15;;;;;;;10.07;5.83;;;;;;;;;;5045485;28;20862;-79
2022/08/16 01:37:45;;;;;;;14.17;5.30;;;;;;;;;;5042537;28;20202;-79
2022/08/16 01:40:14;;;;;;;10.03;5.43;;;;;;;;;;5042993;28;20309;-76
2022/08/16 01:42:42;;;;;;;7.50;5.50;;;;;;;;;;5042751;28;20720;-78
2022/08/16 01:45:10;;;;;;;9.20;5.43;;;;;;;;;;5040826;28;20204;-78
2022/08/16 01:47:38;;;;;;;12.67;5.73;;;;;;;;;;5043912;28;20205;-78
2022/08/16 01:50:06;;;;;;;9.63;5.57;;;;;;;;;;5041809;28;20227;-78
2022/08/16 01:52:33;;;;;;;8.30;5.37;;;;;;;;;;5044187;28;20203;-78
2022/08/16 01:55:00;;;;;;;9.27;5.30;;;;;;;;;;5040326;28;20344;-77
2022/08/16 01:57:28;;;;;;;8.47;6.10;;;;;;;;;;5043287;28;20566;-79
2022/08/16 01:59:57;;;;;;;7.93;5.50;;;;;;;;;;5040898;28;20219;-79
2022/08/16 02:02:24;;;;;;;10.37;5.60;;;;;;;;;;5041458;28;20722;-78
2022/08/16 02:04:51;;;;;;;8.57;5.00;;;;;;;;;;5043601;28;20245;-79
2022/08/16 02:07:19;;;;;;;9.27;5.40;;;;;;;;;;5044686;28;20211;-79
2022/08/16 02:09:47;;;;;;;12.57;5.93;;;;;;;;;;5044177;28;20319;-79
2022/08/16 02:12:15;;;;;;;8.73;5.40;;;;;;;;;;5043250;28;20203;-77
2022/08/16 02:14:42;;;;;;;9.93;6.20;;;;;;;;;;5045721;28;20195;-79
2022/08/16 02:17:11;;;;;;;10.70;5.73;;;;;;;;;;5044194;28;20199;-77
2022/08/16 02:19:40;;;;;;;10.13;5.90;;;;;;;;;;5043015;28;20198;-79
2022/08/16 02:22:09;;;;;;;8.40;5.60;;;;;;;;;;5045479;28;20305;-79
2022/08/16 02:24:37;;;;;;;9.33;5.30;;;;;;;;;;5047878;28;20285;-79
2022/08/16 02:27:04;;;;;;;10.47;5.57;;;;;;;;;;5044306;28;20566;-78
2022/08/16 02:29:31;;;;;;;9.30;5.93;;;;;;;;;;5043190;28;20796;-78
2022/08/16 02:31:59;;;;;;;7.60;4.70;;;;;;;;;;5042692;28;20611;-79
2022/08/16 02:34:27;;;;;;;10.27;5.40;;;;;;;;;;5041326;28;20338;-78
2022/08/16 02:36:55;;;;;;;8.27;5.50;;;;;;;;;;5045262;28;20206;-79
2022/08/16 02:39:22;;;;;;;12.63;5.50;;;;;;;;;;5040555;28;20669;-78
2022/08/16 02:41:50;;;;;;;11.13;5.57;;;;;;;;;;5045288;28;20214;-79
2022/08/16 02:44:17;;;;;;;10.53;5.60;;;;;;;;;;5044223;28;20632;-78
2022/08/16 02:46:45;;;;;;;10.03;5.90;;;;;;;;;;5041478;28;20253;-77
2022/08/16 02:49:12;;;;;;;12.73;5.70;;;;;;;;;;5045372;28;20203;-78
2022/08/16 02:51:42;;;;;;;9.83;6.27;;;;;;;;;;5042239;28;20251;-78
2022/08/16 02:54:10;;;;;;;8.67;5.77;;;;;;;;;;5051348;28;20303;-79
2022/08/16 02:56:38;;;;;;;10.57;6.30;;;;;;;;;;5043420;28;20230;-77
2022/08/16 02:59:05;;;;;;;12.90;6.03;;;;;;;;;;5052939;28;20203;-78
2022/08/16 03:01:33;;;;;;;10.63;5.90;;;;;;;;;;5045032;28;20716;-78
2022/08/16 03:04:01;;;;;;;9.23;5.90;;;;;;;;;;5047192;28;20195;-79
2022/08/16 03:06:29;;;;;;;8.90;6.13;;;;;;;;;;5047903;28;20203;-78
2022/08/16 03:08:57;;;;;;;10.23;5.80;;;;;;;;;;5046133;28;20199;-79
2022/08/16 03:11:24;;;;;;;7.53;5.50;;;;;;;;;;5044667;28;20231;-78
2022/08/16 03:13:53;;;;;;;12.73;6.00;;;;;;;;;;5045445;28;20229;-79
2022/08/16 03:16:21;;;;;;;10.13;5.67;;;;;;;;;;5043769;28;20337;-78
2022/08/16 03:18:49;;;;;;;10.77;6.10;;;;;;;;;;5043182;28;20757;-78
2022/08/16 03:21:16;;;;;;;12.97;5.90;;;;;;;;;;5044383;28;20310;-79
2022/08/16 03:23:44;;;;;;;8.47;5.83;;;;;;;;;;5045594;28;20213;-77
2022/08/16 03:26:13;;;;;;;8.30;5.33;;;;;;;;;;5047658;28;20203;-78
2022/08/16 03:28:40;;;;;;;10.27;5.90;;;;;;;;;;5045038;28;20203;-78
2022/08/16 03:31:07;;;;;;;11.13;5.87;;;;;;;;;;5042523;28;20697;-79
2022/08/16 03:33:35;;;;;;;11.40;5.87;;;;;;;;;;5044363;28;20300;-77
2022/08/16 03:36:02;;;;;;;11.30;6.13;;;;;;;;;;5044267;28;20691;-77
2022/08/16 03:38:30;;;;;;;9.07;5.67;;;;;;;;;;5042190;28;20245;-78
2022/08/16 03:40:58;;;;;;;10.93;6.67;;;;;;;;;;5047558;28;20265;-78
2022/08/16 03:43:26;;;;;;;13.17;6.77;;;;;;;;;;5041959;28;20207;-78
2022/08/16 03:45:56;;;;;;;10.03;5.87;;;;;;;;;;5041567;28;20207;-78
2022/08/16 03:48:24;;;;;;;10.63;6.30;;;;;;;;;;5044441;28;20207;-78
2022/08/16 03:50:51;;;;;;;8.17;5.50;;;;;;;;;;5045690;28;20232;-78
2022/08/16 03:53:18;;;;;;;8.37;5.50;;;;;;;;;;5043499;28;20481;-78
2022/08/16 03:55:45;;;;;;;10.93;6.00;;;;;;;;;;5045025;28;20282;-78
2022/08/16 03:58:13;;;;;;;9.50;5.93;;;;;;;;;;5045863;28;20290;-77
2022/08/16 04:00:41;;;;;;;11.13;6.80;;;;;;;;;;5048010;28;20310;-78
2022/08/16 04:03:08;;;;;;;10.13;6.33;;;;;;;;;;5048274;28;20519;-75
2022/08/16 04:05:36;;;;;;;13.17;6.17;;;;;;;;;;5045426;28;20293;-78
2022/08/16 04:08:03;;;;;;;12.30;5.97;;;;;;;;;;5044561;28;20223;-78
2022/08/16 04:10:31;;;;;;;12.40;6.63;;;;;;;;;;5044867;28;20234;-76
2022/08/16 04:12:58;;;;;;;9.93;6.10;;;;;;;;;;5045028;28;20203;-79
2022/08/16 04:15:29;;;;;;;19.87;7.30;;;;;;;;;;5044296;28;20340;-78
2022/08/16 04:17:58;;;;;;;11.30;6.17;;;;;;;;;;5046016;28;20226;-77
2022/08/16 04:20:26;;;;;;;11.90;6.83;;;;;;;;;;5045260;28;20229;-78
2022/08/16 04:22:53;;;;;;;8.83;5.83;;;;;;;;;;5043043;28;20271;-78
2022/08/16 04:25:21;;;;;;;10.60;6.03;;;;;;;;;;5047337;28;20202;-79
2022/08/16 04:27:48;;;;;;;10.60;5.73;;;;;;;;;;5042165;28;20210;-78
2022/08/16 04:30:17;;;;;;;8.70;5.60;;;;;;;;;;5041990;28;20223;-77
2022/08/16 04:32:44;;;;;;;11.47;6.07;;;;;;;;;;5047529;28;20227;-78
2022/08/16 04:35:15;;;;;;;9.30;6.07;;;;;;;;;;5047724;28;20198;-77
2022/08/16 04:37:42;;;;;;;10.80;6.30;;;;;;;;;;5046925;28;20820;-77
2022/08/16 04:40:11;;;;;;;11.57;5.57;;;;;;;;;;5043348;28;20226;-77
2022/08/16 04:42:40;;;;;;;13.57;5.93;;;;;;;;;;5044909;28;20299;-76
2022/08/16 04:45:09;;;;;;;11.73;6.43;;;;;;;;;;5042185;28;20203;-79
2022/08/16 04:47:36;;;;;;;10.77;5.63;;;;;;;;;;5047804;28;20203;-77
2022/08/16 04:50:04;;;;;;;8.97;5.97;;;;;;;;;;5047327;28;20719;-78
2022/08/16 04:52:33;;;;;;;11.03;5.83;;;;;;;;;;5042560;28;20204;-78
2022/08/16 04:55:00;;;;;;;11.70;6.23;;;;;;;;;;5043769;28;20317;-77
2022/08/16 04:57:27;;;;;;;12.27;6.17;;;;;;;;;;5046761;28;20303;-78
2022/08/16 04:59:54;;;;;;;11.77;6.20;;;;;;;;;;5040380;28;20713;-78
2022/08/16 05:02:21;;;;;;;12.60;6.50;;;;;;;;;;5042600;28;20202;-77
2022/08/16 05:04:48;;;;;;;12.77;5.87;;;;;;;;;;5045113;28;20199;-77
2022/08/16 05:07:15;;;;;;;9.23;5.70;;;;;;;;;;5042940;28;20203;-79
2022/08/16 05:09:44;;;;;;;10.83;4.80;;;;;;;;;;5044816;28;20211;-78
2022/08/16 05:12:11;;;;;;;7.00;4.97;;;;;;;;;;5040928;28;20321;-78
2022/08/16 05:14:38;;;;;;;6.47;4.30;;;;;;;;;;5046834;28;20211;-78
2022/08/16 05:17:05;;;;;;;8.50;4.97;;;;;;;;;;5038618;28;20282;-77
2022/08/16 05:19:33;;;;;;;9.10;4.67;;;;;;;;;;5041437;28;20214;-77
2022/08/16 05:22:00;;;;;;;7.17;4.30;;;;;;;;;;5042550;28;20208;-78
2022/08/16 05:24:27;;;;;;;8.90;4.60;;;;;;;;;;5041865;28;20203;-76
2022/08/16 05:26:55;;;;;;;8.70;4.53;;;;;;;;;;5040723;28;20243;-79
2022/08/16 05:29:23;;;;;;;10.40;4.30;;;;;;;;;;5044765;28;20261;-78
2022/08/16 05:31:50;;;;;;;6.93;4.83;;;;;;;;;;5041530;28;20224;-79
2022/08/16 05:34:20;;;;;;;6.37;4.50;;;;;;;;;;5044193;28;20249;-78
2022/08/16 05:36:48;;;;;;;8.23;4.63;;;;;;;;;;5040777;28;20652;-79
2022/08/16 05:39:15;;;;;;;7.73;4.73;;;;;;;;;;5037818;28;20210;-79
2022/08/16 05:41:43;;;;;;;10.37;4.50;;;;;;;;;;5043867;28;20298;-78
2022/08/16 05:44:11;;;;;;;7.67;4.13;;;;;;;;;;5048572;28;20282;-78
2022/08/16 05:46:38;;;;;;;7.67;4.10;;;;;;;;;;5041154;28;20208;-77
2022/08/16 05:49:05;;;;;;;8.10;4.30;;;;;;;;;;5040738;28;20232;-77
2022/08/16 05:51:32;;;;;;;8.13;4.60;;;;;;;;;;5042214;28;20703;-78
2022/08/16 05:54:00;;;;;;;6.50;4.80;;;;;;;;;;5040782;28;20295;-79
2022/08/16 05:56:27;;;;;;;8.03;5.00;;;;;;;;;;5045335;28;20214;-78
2022/08/16 05:58:54;;;;;;;9.33;4.20;;;;;;;;;;5039297;28;20209;-78
2022/08/16 06:01:22;;;;;;;6.97;4.60;;;;;;;;;;5038311;28;20219;-77
2022/08/16 06:03:49;;;;;;;8.73;5.37;;;;;;;;;;5037353;28;20303;-78
2022/08/16 06:06:17;;;;;;;7.93;5.00;;;;;;;;;;5044752;28;20234;-78
2022/08/16 06:08:44;;;;;;;8.43;5.17;;;;;;;;;;5041918;28;20290;-79
2022/08/16 06:11:11;;;;;;;5.97;4.47;;;;;;;;;;5042806;28;20318;-79
2022/08/16 06:13:38;;;;;;;8.93;4.83;;;;;;;;;;5044324;28;20201;-79
2022/08/16 06:16:06;;;;;;;6.80;4.40;;;;;;;;;;5042007;28;20299;-77
2022/08/16 06:18:34;;;;;;;5.93;4.30;;;;;;;;;;5045459;28;20555;-77
2022/08/16 06:21:02;;;;;;;7.77;4.43;;;;;;;;;;5039457;28;20281;-77
2022/08/16 06:23:29;;;;;;;9.60;4.87;;;;;;;;;;5046355;28;20206;-78
2022/08/16 06:25:56;;;;;;;10.50;5.53;;;;;;;;;;5039793;28;20214;-79
2022/08/16 06:28:23;;;;;;;10.27;5.07;;;;;;;;;;5041320;28;20285;-77
2022/08/16 06:30:50;;;;;;;7.37;4.80;;;;;;;;;;5044853;28;20341;-78
2022/08/16 06:33:18;;;;;;;10.30;4.90;;;;;;;;;;5046121;28;20261;-78
2022/08/16 06:35:46;;;;;;;8.37;5.10;;;;;;;;;;5044529;28;20225;-76
2022/08/16 06:38:14;;;;;;;9.13;4.90;;;;;;;;;;5048186;28;20204;-77
2022/08/16 06:40:41;;;;;;;10.17;5.27;;;;;;;;;;5040275;28;20246;-78
2022/08/16 06:43:08;;;;;;;7.60;5.13;;;;;;;;;;5044406;28;20645;-75
2022/08/16 06:45:36;;;;;;;10.80;4.80;;;;;;;;;;5044787;28;20500;-77
2022/08/16 06:48:04;;;;;;;9.60;5.23;;;;;;;;;;5044243;28;20214;-76
2022/08/16 06:50:31;;;;;;;12.10;5.63;;;;;;;;;;5041770;28;20718;-79
2022/08/16 06:53:00;;;;;;;8.27;5.43;;;;;;;;;;5042044;28;20626;-78
2022/08/16 06:55:27;;;;;;;7.53;5.13;;;;;;;;;;5042668;28;20719;-77
2022/08/16 06:57:55;;;;;;;9.50;5.00;;;;;;;;;;5045226;28;20298;-77
2022/08/16 07:00:22;;;;;;;8.47;4.90;;;;;;;;;;5043988;28;20237;-76
2022/08/16 07:02:51;;;;;;;7.13;4.23;;;;;;;;;;5040219;28;20303;-79
2022/08/16 07:05:18;;;;;;;9.63;4.57;;;;;;;;;;5045610;28;20213;-77
2022/08/16 07:07:47;;;;;;;6.73;4.33;;;;;;;;;;5048755;28;20227;-76
2022/08/16 07:10:16;;;;;;;7.13;4.70;;;;;;;;;;5048521;28;20226;-77
2022/08/16 07:12:43;;;;;;;7.17;4.67;;;;;;;;;;5042812;28;20224;-77
2022/08/16 07:15:11;;;;;;;10.33;5.13;;;;;;;;;;5046642;28;20213;-78
2022/08/16 07:17:38;;;;;;;8.33;3.83;;;;;;;;;;5047905;28;20567;-78
2022/08/16 07:20:06;;;;;;;8.23;4.40;;;;;;;;;;5044895;28;20224;-79
2022/08/16 07:22:34;;;;;;;12.90;4.10;;;;;;;;;;5045004;28;20198;-78
2022/08/16 07:25:01;;;;;;;7.10;4.00;;;;;;;;;;5043254;28;20205;-77
2022/08/16 07:27:29;;;;;;;5.13;3.50;;;;;;;;;;5044082;28;20665;-78
2022/08/16 07:29:57;;;;;;;9.93;4.03;;;;;;;;;;5047738;28;20229;-78
2022/08/16 07:32:25;;;;;;;6.60;3.70;;;;;;;;;;5043455;28;20357;-80
2022/08/16 07:34:52;;;;;;;7.53;3.93;;;;;;;;;;5044181;28;20294;-77
2022/08/16 07:37:20;;;;;;;6.70;3.57;;;;;;;;;;5044979;28;20211;-78
2022/08/16 07:39:47;;;;;;;5.90;3.57;;;;;;;;;;5046309;28;20219;-77
2022/08/16 07:42:15;;;;;;;8.20;3.57;;;;;;;;;;5036366;28;20346;-78
2022/08/16 07:44:44;;;;;;;7.97;3.77;;;;;;;;;;5043551;28;20212;-80
2022/08/16 07:47:11;;;;;;;6.63;3.47;;;;;;;;;;5046306;28;20298;-76
2022/08/16 07:49:38;;;;;;;8.87;3.50;;;;;;;;;;5048914;28;20246;-80
2022/08/16 07:52:06;;;;;;;7.33;3.43;;;;;;;;;;5043719;28;20266;-77
2022/08/16 07:54:33;;;;;;;12.38;3.45;;;;;;;;;;5047776;28;20762;-79
2022/08/16 07:57:00;;;;;;;19.00;3.90;;;;;;;;;;5047447;28;20226;-79
2022/08/16 07:59:27;;;;;;;13.13;3.60;;;;;;;;;;5047116;28;20548;-77
2022/08/16 08:01:56;;;;;;;10.20;3.40;;;;;;;;;;5045619;28;20286;-78
2022/08/16 08:04:25;;;;;;;14.75;3.70;;;;;;;;;;5040975;28;20572;-77
2022/08/16 08:06:52;;;;;;;10.17;3.10;;;;;;;;;;5047271;28;20271;-77
2022/08/16 08:09:19;;;;;;;6.33;3.30;;;;;;;;;;5045101;28;20198;-78
2022/08/16 08:11:48;;;;;;;9.90;3.10;;;;;;;;;;5046398;28;20241;-77
2022/08/16 08:14:16;;;;;;;7.70;3.37;;;;;;;;;;5048090;28;20202;-79
2022/08/16 08:16:43;;;;;;;7.67;3.30;;;;;;;;;;5046940;28;20211;-77
2022/08/16 08:19:12;;;;;;;10.13;2.80;;;;;;;;;;5048266;28;20210;-77
2022/08/16 08:21:40;;;;;;;7.17;3.40;;;;;;;;;;5048799;28;20769;-79
2022/08/16 08:24:08;;;;;;;4.23;3.10;;;;;;;;;;5042751;28;20205;-79
2022/08/16 08:26:35;;;;;;;6.40;3.03;;;;;;;;;;5044358;28;20232;-79
2022/08/16 08:29:02;;;;;;;5.87;2.87;;;;;;;;;;5046228;28;20579;-79
2022/08/16 08:31:29;;;;;;;4.17;2.73;;;;;;;;;;5047032;28;20240;-77
2022/08/16 08:33:59;;;;;;;5.17;2.80;;;;;;;;;;5045225;28;20227;-79
2022/08/16 08:36:29;;;;;;;7.27;2.63;;;;;;;;;;5042494;28;20215;-79
2022/08/16 08:38:56;;;;;;;4.40;2.60;;;;;;;;;;5044648;28;20205;-78
2022/08/16 08:41:24;;;;;;;8.27;2.47;;;;;;;;;;5041273;28;20236;-77
2022/08/16 08:43:51;;;;;;;4.27;2.70;;;;;;;;;;5041130;28;20196;-78
2022/08/16 08:46:20;;;;;;;3.40;2.37;;;;;;;;;;5038842;28;20216;-77
2022/08/16 08:48:47;;;;;;;8.30;2.73;;;;;;;;;;5042862;28;20222;-76
2022/08/16 08:51:16;;;;;;;6.00;2.50;;;;;;;;;;5043142;28;20320;-77
2022/08/16 08:53:44;;;;;;;5.07;3.00;;;;;;;;;;5039473;28;20240;-77
2022/08/16 08:56:15;;;;;;;5.43;2.73;;;;;;;;;;5043342;28;20230;-76
2022/08/16 08:58:42;;;;;;;3.23;2.50;;;;;;;;;;5042917;28;20214;-77
2022/08/16 09:01:10;;;;;;;4.77;2.77;;;;;;;;;;5045321;28;20219;-79
2022/08/16 09:03:38;;;;;;;6.00;2.60;;;;;;;;;;5044035;28;20671;-78
2022/08/16 09:06:07;;;;;;;5.30;2.70;;;;;;;;;;5040867;28;20207;-79
2022/08/16 09:08:34;;;;;;;4.30;2.93;;;;;;;;;;5043028;28;20239;-77
2022/08/16 09:11:03;;;;;;;5.47;3.00;;;;;;;;;;5042252;28;20585;-76
2022/08/16 09:13:31;;;;;;;6.33;2.70;;;;;;;;;;5040614;28;20227;-79
2022/08/16 09:15:59;;;;;;;3.50;2.47;;;;;;;;;;5041908;28;20265;-77
2022/08/16 09:18:28;;;;;;;4.60;2.67;;;;;;;;;;5036184;28;20736;-78
2022/08/16 09:20:55;;;;;;;4.17;2.60;;;;;;;;;;5043809;28;20218;-80
2022/08/16 09:23:24;;;;;;;7.97;2.63;;;;;;;;;;5042865;28;20305;-79
2022/08/16 09:25:51;;;;;;;4.50;2.80;;;;;;;;;;5043901;28;20218;-76
2022/08/16 09:28:20;;;;;;;5.23;2.80;;;;;;;;;;5058634;28;20229;-75
2022/08/16 09:30:48;;;;;;;4.50;2.60;;;;;;;;;;5058657;28;20233;-76
2022/08/16 09:33:17;;;;;;;5.07;2.20;;;;;;;;;;5041530;28;20237;-78
2022/08/16 09:35:45;;;;;;;7.33;2.60;;;;;;;;;;5045057;28;20215;-78
2022/08/16 09:38:12;;;;;;;3.70;2.67;;;;;;;;;;5043972;28;20208;-78
2022/08/16 09:40:40;;;;;;;5.47;2.83;;;;;;;;;;5039991;28;20701;-77
2022/08/16 09:43:07;;;;;;;4.40;3.03;;;;;;;;;;5040162;28;20203;-78
2022/08/16 09:45:37;;;;;;;3.77;2.23;;;;;;;;;;5041817;28;20221;-77
2022/08/16 09:48:05;;;;;;;3.87;2.50;;;;;;;;;;5041430;28;20207;-77
2022/08/16 09:50:34;;;;;;;3.83;2.40;;;;;;;;;;5048228;28;20231;-78
2022/08/16 09:53:02;;;;;;;4.87;2.60;;;;;;;;;;5037677;28;20226;-78
2022/08/16 09:55:29;;;;;;;5.03;2.50;;;;;;;;;;5043323;28;20230;-77
2022/08/16 09:57:57;;;;;;;3.40;2.37;;;;;;;;;;5039271;28;20301;-76
2022/08/16 10:00:25;;;;;;;5.23;2.50;;;;;;;;;;5038726;28;20544;-77
2022/08/16 10:02:57;;;;;;;3.67;2.40;;;;;;;;;;5041834;28;20235;-77
2022/08/16 10:05:24;;;;;;;4.00;2.60;;;;;;;;;;5044904;28;20290;-77
2022/08/16 10:07:52;;;;;;;4.53;2.30;;;;;;;;;;5041744;28;20299;-77
2022/08/16 10:10:20;;;;;;;6.57;2.30;;;;;;;;;;5038141;28;20774;-77
2022/08/16 10:15:32;;;;;;;2.97;2.33;;;;;;;;;;5038200;28;20206;-77
2022/08/16 10:18:06;;;;;;;5.70;2.40;;;;;;;;;;5036158;28;20206;-77
2022/08/16 10:20:35;;;;;;;4.37;2.30;;;;;;;;;;5036705;28;20709;-76
2022/08/16 10:23:02;;;;;;;4.37;2.33;;;;;;;;;;5035859;28;20661;-77
2022/08/16 10:25:29;;;;;;;4.00;2.27;;;;;;;;;;5032699;28;20206;-77
2022/08/16 10:27:57;;;;;;;3.00;2.20;;;;;;;;;;5038578;28;20268;-77
2022/08/16 10:30:24;;;;;;;4.03;2.33;;;;;;;;;;5037774;28;20321;-76
2022/08/16 10:32:51;;;;;;;4.07;2.13;;;;;;;;;;5044494;28;20295;-77
2022/08/16 10:35:20;;;;;;;3.10;2.20;;;;;;;;;;5039723;28;20209;-76
2022/08/16 10:37:47;;;;;;;2.90;2.10;;;;;;;;;;5044919;28;20665;-77
2022/08/16 10:40:14;;;;;;;6.80;2.17;;;;;;;;;;5043268;28;20602;-77
2022/08/16 10:42:41;;;;;;;3.23;2.17;;;;;;;;;;5045282;28;20229;-78
2022/08/16 10:45:09;;;;;;;2.50;1.97;;;;;;;;;;5042577;28;20617;-77
2022/08/16 10:47:37;;;;;;;4.47;2.40;;;;;;;;;;5041951;28;20286;-76
2022/08/16 10:50:05;;;;;;;6.10;2.13;;;;;;;;;;5042026;28;20724;-78
2022/08/16 10:52:34;;;;;;;6.93;2.50;;;;;;;;;;5041791;28;20314;-77
2022/08/16 10:55:02;;;;;;;5.43;2.53;;;;;;;;;;5038232;28;20689;-77
2022/08/16 10:57:30;;;;;;;4.90;2.80;;;;;;;;;;5044569;28;20207;-77
2022/08/16 10:59:58;;;;;;;8.90;2.40;;;;;;;;;;5041857;28;20219;-77
2022/08/16 11:02:25;;;;;;;7.47;2.53;;;;;;;;;;5043246;28;20203;-77
2022/08/16 11:04:53;;;;;;;7.70;2.83;;;;;;;;;;5040624;28;20195;-78
2022/08/16 11:07:20;;;;;;;4.37;2.30;;;;;;;;;;5043846;28;20203;-78
2022/08/16 11:09:49;;;;;;;7.23;2.53;;;;;;;;;;5043892;28;20223;-78
2022/08/16 11:12:16;;;;;;;5.13;1.90;;;;;;;;;;5041236;28;20771;-78
2022/08/16 11:14:43;;;;;;;4.57;2.40;;;;;;;;;;5041766;28;20303;-77
2022/08/16 11:17:12;;;;;;;10.70;2.67;;;;;;;;;;5046067;28;20711;-78
2022/08/16 11:19:41;;;;;;;4.37;2.00;;;;;;;;;;5046828;28;20238;-78
2022/08/16 11:22:08;;;;;;;6.13;2.83;;;;;;;;;;5048641;28;20210;-76
2022/08/16 11:24:39;;;;;;;3.20;2.37;;;;;;;;;;5048101;28;20289;-77
2022/08/16 11:27:08;;;;;;;3.40;2.10;;;;;;;;;;5048857;28;20740;-77
2022/08/16 11:29:35;;;;;;;4.83;2.80;;;;;;;;;;5042972;28;20615;-77
2022/08/16 11:32:04;;;;;;;5.73;2.50;;;;;;;;;;5046226;28;20208;-76
2022/08/16 11:34:31;;;;;;;3.13;2.50;;;;;;;;;;5044377;28;20294;-77
2022/08/16 11:36:59;;;;;;;5.03;2.50;;;;;;;;;;5051515;28;20273;-76
2022/08/16 11:39:26;;;;;;;4.13;2.20;;;;;;;;;;5046748;28;20203;-77
2022/08/16 11:41:53;;;;;;;2.77;2.23;;;;;;;;;;5044538;28;20204;-78
2022/08/16 11:44:21;;;;;;;8.47;2.70;;;;;;;;;;5044833;28;20674;-78
2022/08/16 11:46:49;;;;;;;4.27;2.43;;;;;;;;;;5046960;28;20286;-79
2022/08/16 11:49:16;;;;;;;4.13;2.60;;;;;;;;;;5042884;28;20214;-78
2022/08/16 11:51:44;;;;;;;4.63;1.90;;;;;;;;;;5035640;28;20302;-78
2022/08/16 11:54:11;;;;;;;3.33;2.23;;;;;;;;;;5033984;28;20231;-77
2022/08/16 11:56:38;;;;;;;4.13;2.30;;;;;;;;;;5039217;28;20195;-77
2022/08/16 11:59:05;;;;;;;4.40;2.43;;;;;;;;;;5042810;28;20199;-77
2022/08/16 12:01:34;;;;;;;4.40;2.20;;;;;;;;;;5041918;28;20305;-78
2022/08/16 12:04:01;;;;;;;4.80;2.43;;;;;;;;;;5040972;28;20210;-81
2022/08/16 12:06:29;;;;;;;4.93;2.20;;;;;;;;;;5038118;28;20199;-79
2022/08/16 12:08:57;;;;;;;3.40;2.57;;;;;;;;;;5041205;28;20290;-79
2022/08/16 12:11:25;;;;;;;3.83;2.40;;;;;;;;;;5047220;28;20238;-79
2022/08/16 12:13:53;;;;;;;6.87;2.47;;;;;;;;;;5046019;28;20701;-79
2022/08/16 12:16:20;;;;;;;2.80;1.90;;;;;;;;;;5046089;28;20217;-79
2022/08/16 12:18:49;;;;;;;4.47;2.17;;;;;;;;;;5048200;28;20231;-80
2022/08/16 12:21:16;;;;;;;4.13;2.07;;;;;;;;;;5047427;28;20225;-81
2022/08/16 12:23:43;;;;;;;8.63;2.40;;;;;;;;;;5046896;28;20204;-80
2022/08/16 12:26:10;;;;;;;7.17;2.50;;;;;;;;;;5046404;28;20290;-78
2022/08/16 12:28:38;;;;;;;5.27;3.00;;;;;;;;;;5046668;28;20213;-78
2022/08/16 12:31:05;;;;;;;3.00;2.30;;;;;;;;;;5041995;28;20317;-81
2022/08/16 12:33:32;;;;;;;3.77;2.10;;;;;;;;;;5041931;28;20220;-79
2022/08/16 12:36:01;;;;;;;9.77;2.33;;;;;;;;;;5044484;28;20205;-78
2022/08/16 12:38:29;;;;;;;4.97;2.53;;;;;;;;;;5047022;28;20242;-80
2022/08/16 12:40:57;;;;;;;5.73;2.43;;;;;;;;;;5046063;28;20219;-79
2022/08/16 12:43:24;;;;;;;5.43;2.67;;;;;;;;;;5043455;28;20298;-79
2022/08/16 12:45:52;;;;;;;5.20;2.40;;;;;;;;;;5046587;28;20721;-80
2022/08/16 12:51:09;;;;;;;3.10;2.40;;;;;;;;;;5043455;28;20595;-80
2022/08/16 12:53:37;;;;;;;5.80;3.00;;;;;;;;;;5045662;28;20227;-78
2022/08/16 12:56:04;;;;;;;3.80;2.10;;;;;;;;;;5046339;28;20290;-80
2022/08/16 12:58:32;;;;;;;4.30;2.27;;;;;;;;;;5038753;28;20202;-80
2022/08/16 13:00:59;;;;;;;5.80;2.43;;;;;;;;;;5041102;28;20736;-79
2022/08/16 13:03:27;;;;;;;5.13;2.30;;;;;;;;;;5040251;28;20961;-81
2022/08/16 13:05:54;;;;;;;3.87;2.53;;;;;;;;;;5043686;28;20289;-80
2022/08/16 13:08:24;;;;;;;3.27;2.10;;;;;;;;;;5044909;28;20239;-81
2022/08/16 13:10:53;;;;;;;5.00;2.37;;;;;;;;;;5045122;28;20226;-80
2022/08/16 13:13:24;;;;;;;4.17;2.33;;;;;;;;;;5043587;28;20219;-80
2022/08/16 13:15:52;;;;;;;6.27;2.30;;;;;;;;;;5039875;28;20214;-78
2022/08/16 13:18:19;;;;;;;8.60;3.07;;;;;;;;;;5043302;28;20256;-80
2022/08/16 13:20:46;;;;;;;4.30;2.20;;;;;;;;;;5041240;28;20567;-81
2022/08/16 13:23:14;;;;;;;10.40;2.60;;;;;;;;;;5040254;28;20654;-80
2022/08/16 13:25:43;;;;;;;3.80;2.13;;;;;;;;;;5042151;28;20235;-78
2022/08/16 13:28:11;;;;;;;5.40;2.63;;;;;;;;;;5044778;28;20591;-77
2022/08/16 13:30:39;;;;;;;4.23;2.17;;;;;;;;;;5044231;28;20318;-79
2022/08/16 13:33:07;;;;;;;5.43;2.23;;;;;;;;;;5044182;28;20223;-81
2022/08/16 13:35:35;;;;;;;6.43;2.30;;;;;;;;;;5045716;28;20203;-79
2022/08/16 13:38:02;;;;;;;5.60;2.27;;;;;;;;;;5040052;28;20201;-78
2022/08/16 13:40:29;;;;;;;4.53;2.13;;;;;;;;;;5047297;28;20227;-81
2022/08/16 13:42:58;;;;;;;5.70;2.33;;;;;;;;;;5047027;28;20211;-78
2022/08/16 13:45:26;;;;;;;3.30;2.30;;;;;;;;;;5044021;28;20633;-80
2022/08/16 13:47:54;;;;;;;6.07;2.50;;;;;;;;;;5044143;28;20202;-80
2022/08/16 13:50:22;;;;;;;7.50;2.37;;;;;;;;;;5041909;28;20721;-78
2022/08/16 13:52:49;;;;;;;3.53;2.60;;;;;;;;;;5042108;28;20211;-78
2022/08/16 13:55:16;;;;;;;4.77;2.20;;;;;;;;;;5046615;28;20286;-80
2022/08/16 13:57:43;;;;;;;8.37;2.63;;;;;;;;;;5036760;28;20741;-80
2022/08/16 14:00:13;;;;;;;4.20;2.00;;;;;;;;;;5037378;28;20768;-79
2022/08/16 14:02:40;;;;;;;9.37;2.77;;;;;;;;;;5039426;28;20658;-80
2022/08/16 14:05:08;;;;;;;4.80;2.00;;;;;;;;;;5044327;28;20669;-80
2022/08/16 14:07:36;;;;;;;4.07;2.60;;;;;;;;;;5040528;28;20288;-79
2022/08/16 14:10:04;;;;;;;4.33;2.30;;;;;;;;;;5043577;28;20245;-80
2022/08/16 14:12:32;;;;;;;4.63;2.20;;;;;;;;;;5042962;28;20239;-77
2022/08/16 14:14:59;;;;;;;3.60;2.37;;;;;;;;;;5042581;28;20219;-78
2022/08/16 14:17:29;;;;;;;4.93;2.10;;;;;;;;;;5043706;28;20228;-76
2022/08/16 14:19:56;;;;;;;5.57;2.37;;;;;;;;;;5039362;28;20223;-79
2022/08/16 14:22:25;;;;;;;7.40;2.50;;;;;;;;;;5035627;28;20297;-78
2022/08/16 14:24:53;;;;;;;4.80;2.40;;;;;;;;;;5042715;28;20832;-80
2022/08/16 14:27:22;;;;;;;4.87;2.20;;;;;;;;;;5045054;28;20575;-80
2022/08/16 14:29:49;;;;;;;7.53;2.10;;;;;;;;;;5044034;28;20559;-79
2022/08/16 14:32:17;;;;;;;2.90;2.20;;;;;;;;;;5044587;28;20753;-79
2022/08/16 14:34:45;;;;;;;6.43;2.50;;;;;;;;;;5041456;28;20327;-77
2022/08/16 14:37:12;;;;;;;3.87;2.40;;;;;;;;;;5044761;28;20203;-80
2022/08/16 14:39:40;;;;;;;7.53;2.23;;;;;;;;;;5042178;28;20669;-79
2022/08/16 14:42:07;;;;;;;13.03;2.23;;;;;;;;;;5041626;28;20570;-79
2022/08/16 14:44:35;;;;;;;2.63;1.90;;;;;;;;;;5043185;28;20195;-78
2022/08/16 14:47:02;;;;;;;3.33;2.40;;;;;;;;;;5040494;28;20750;-79
2022/08/16 14:49:29;;;;;;;4.33;2.10;;;;;;;;;;5042287;28;20236;-79